sensor_id;sensor_type;location;lat;lon;timestamp;P1;durP1;ratioP1;P2;durP2;ratioP2
52438;SDS011;38359;53.150;6.504;2023-06-26T00:06:42;10.80;;;6.93;;
52438;SDS011;38359;53.150;6.504;2023-06-26T00:17:08;8.35;;;6.60;;
52438;SDS011;38359;53.150;6.504;2023-06-26T00:27:33;8.95;;;6.82;;
52438;SDS011;38359;53.150;6.504;2023-06-26T00:37:59;14.20;;;7.03;;
52438;SDS011;38359;53.150;6.504;2023-06-26T00:48:25;10.38;;;7.00;;
52438;SDS011;38359;53.150;6.504;2023-06-26T00:58:51;9.43;;;6.95;;
52438;SDS011;38359;53.150;6.504;2023-06-26T01:09:20;11.23;;;7.25;;
52438;SDS011;38359;53.150;6.504;2023-06-26T01:19:47;12.10;;;7.43;;
52438;SDS011;38359;53.150;6.504;2023-06-26T01:30:14;11.35;;;7.78;;
52438;SDS011;38359;53.150;6.504;2023-06-26T01:40:42;12.30;;;7.43;;
52438;SDS011;38359;53.150;6.504;2023-06-26T01:51:11;11.65;;;8.43;;
52438;SDS011;38359;53.150;6.504;2023-06-26T02:01:39;10.45;;;7.70;;
52438;SDS011;38359;53.150;6.504;2023-06-26T02:12:05;14.23;;;7.68;;
52438;SDS011;38359;53.150;6.504;2023-06-26T02:22:32;11.20;;;8.18;;
52438;SDS011;38359;53.150;6.504;2023-06-26T02:32:58;18.10;;;9.88;;
52438;SDS011;38359;53.150;6.504;2023-06-26T02:43:23;13.48;;;9.60;;
52438;SDS011;38359;53.150;6.504;2023-06-26T02:53:49;15.90;;;9.35;;
52438;SDS011;38359;53.150;6.504;2023-06-26T03:04:15;15.57;;;11.00;;
52438;SDS011;38359;53.150;6.504;2023-06-26T03:14:42;14.77;;;11.38;;
52438;SDS011;38359;53.150;6.504;2023-06-26T03:25:08;16.88;;;11.13;;
52438;SDS011;38359;53.150;6.504;2023-06-26T03:35:34;14.27;;;11.05;;
52438;SDS011;38359;53.150;6.504;2023-06-26T03:46:00;17.65;;;11.45;;
52438;SDS011;38359;53.150;6.504;2023-06-26T03:56:26;14.43;;;11.38;;
52438;SDS011;38359;53.150;6.504;2023-06-26T04:06:51;16.63;;;11.75;;
52438;SDS011;38359;53.150;6.504;2023-06-26T04:17:17;19.23;;;11.73;;
52438;SDS011;38359;53.150;6.504;2023-06-26T04:27:43;20.90;;;11.15;;
52438;SDS011;38359;53.150;6.504;2023-06-26T04:38:09;17.95;;;10.48;;
52438;SDS011;38359;53.150;6.504;2023-06-26T04:48:35;19.23;;;10.38;;
52438;SDS011;38359;53.150;6.504;2023-06-26T04:59:01;21.25;;;9.75;;
52438;SDS011;38359;53.150;6.504;2023-06-26T05:09:28;22.08;;;10.15;;
52438;SDS011;38359;53.150;6.504;2023-06-26T05:19:54;28.35;;;11.75;;
52438;SDS011;38359;53.150;6.504;2023-06-26T05:30:19;28.77;;;10.38;;
52438;SDS011;38359;53.150;6.504;2023-06-26T05:40:46;29.67;;;8.82;;
52438;SDS011;38359;53.150;6.504;2023-06-26T05:51:12;23.77;;;8.02;;
52438;SDS011;38359;53.150;6.504;2023-06-26T06:01:38;22.15;;;6.82;;
52438;SDS011;38359;53.150;6.504;2023-06-26T06:12:07;23.45;;;6.60;;
52438;SDS011;38359;53.150;6.504;2023-06-26T06:22:33;37.05;;;6.43;;
52438;SDS011;38359;53.150;6.504;2023-06-26T06:32:59;22.23;;;5.07;;
52438;SDS011;38359;53.150;6.504;2023-06-26T06:43:25;21.30;;;4.20;;
52438;SDS011;38359;53.150;6.504;2023-06-26T06:53:50;21.30;;;4.70;;
52438;SDS011;38359;53.150;6.504;2023-06-26T07:04:16;16.15;;;4.07;;
52438;SDS011;38359;53.150;6.504;2023-06-26T07:14:42;17.70;;;3.25;;
52438;SDS011;38359;53.150;6.504;2023-06-26T07:25:08;9.43;;;3.00;;
52438;SDS011;38359;53.150;6.504;2023-06-26T07:35:34;11.68;;;2.03;;
52438;SDS011;38359;53.150;6.504;2023-06-26T07:46:00;15.93;;;2.55;;
52438;SDS011;38359;53.150;6.504;2023-06-26T07:56:26;8.38;;;2.20;;
52438;SDS011;38359;53.150;6.504;2023-06-26T08:06:52;9.40;;;2.60;;
52438;SDS011;38359;53.150;6.504;2023-06-26T08:17:21;9.85;;;2.20;;
52438;SDS011;38359;53.150;6.504;2023-06-26T08:27:46;9.07;;;2.92;;
52438;SDS011;38359;53.150;6.504;2023-06-26T08:38:13;6.38;;;2.00;;
52438;SDS011;38359;53.150;6.504;2023-06-26T08:48:39;10.13;;;2.55;;
52438;SDS011;38359;53.150;6.504;2023-06-26T08:59:13;10.13;;;2.63;;
52438;SDS011;38359;53.150;6.504;2023-06-26T09:09:39;12.05;;;2.10;;
52438;SDS011;38359;53.150;6.504;2023-06-26T09:20:05;9.10;;;2.13;;
52438;SDS011;38359;53.150;6.504;2023-06-26T09:30:33;5.18;;;1.85;;
52438;SDS011;38359;53.150;6.504;2023-06-26T09:40:59;10.73;;;2.17;;
52438;SDS011;38359;53.150;6.504;2023-06-26T09:51:24;8.85;;;2.92;;
52438;SDS011;38359;53.150;6.504;2023-06-26T10:01:58;11.63;;;2.85;;
52438;SDS011;38359;53.150;6.504;2023-06-26T10:12:28;9.95;;;2.20;;
52438;SDS011;38359;53.150;6.504;2023-06-26T10:22:55;6.60;;;2.33;;
52438;SDS011;38359;53.150;6.504;2023-06-26T10:33:26;10.45;;;2.53;;
52438;SDS011;38359;53.150;6.504;2023-06-26T10:54:30;8.68;;;2.55;;
52438;SDS011;38359;53.150;6.504;2023-06-26T11:04:59;7.60;;;2.17;;
52438;SDS011;38359;53.150;6.504;2023-06-26T11:15:26;22.23;;;2.40;;
52438;SDS011;38359;53.150;6.504;2023-06-26T11:25:52;8.68;;;1.80;;
52438;SDS011;38359;53.150;6.504;2023-06-26T11:36:22;5.95;;;1.75;;
52438;SDS011;38359;53.150;6.504;2023-06-26T11:46:52;11.30;;;1.70;;
52438;SDS011;38359;53.150;6.504;2023-06-26T11:57:20;15.10;;;1.50;;
52438;SDS011;38359;53.150;6.504;2023-06-26T12:07:47;39.50;;;3.85;;
52438;SDS011;38359;53.150;6.504;2023-06-26T12:18:13;7.47;;;1.63;;
52438;SDS011;38359;53.150;6.504;2023-06-26T12:28:39;19.63;;;1.95;;
52438;SDS011;38359;53.150;6.504;2023-06-26T12:39:05;22.95;;;2.63;;
52438;SDS011;38359;53.150;6.504;2023-06-26T12:49:31;9.73;;;1.70;;
52438;SDS011;38359;53.150;6.504;2023-06-26T13:00:05;7.20;;;1.40;;
52438;SDS011;38359;53.150;6.504;2023-06-26T13:10:32;8.77;;;2.03;;
52438;SDS011;38359;53.150;6.504;2023-06-26T13:20:58;13.57;;;2.25;;
52438;SDS011;38359;53.150;6.504;2023-06-26T13:31:24;13.55;;;2.35;;
52438;SDS011;38359;53.150;6.504;2023-06-26T13:41:49;9.02;;;2.00;;
52438;SDS011;38359;53.150;6.504;2023-06-26T13:52:15;6.63;;;1.58;;
52438;SDS011;38359;53.150;6.504;2023-06-26T14:02:41;9.80;;;1.73;;
52438;SDS011;38359;53.150;6.504;2023-06-26T14:13:07;10.82;;;1.98;;
52438;SDS011;38359;53.150;6.504;2023-06-26T14:23:33;12.18;;;1.98;;
52438;SDS011;38359;53.150;6.504;2023-06-26T14:33:59;6.10;;;1.60;;
52438;SDS011;38359;53.150;6.504;2023-06-26T14:44:25;12.73;;;1.73;;
52438;SDS011;38359;53.150;6.504;2023-06-26T14:54:51;7.85;;;1.85;;
52438;SDS011;38359;53.150;6.504;2023-06-26T15:05:17;5.45;;;1.23;;
52438;SDS011;38359;53.150;6.504;2023-06-26T15:15:43;9.48;;;1.65;;
52438;SDS011;38359;53.150;6.504;2023-06-26T15:26:08;8.73;;;1.75;;
52438;SDS011;38359;53.150;6.504;2023-06-26T15:36:34;12.02;;;1.88;;
52438;SDS011;38359;53.150;6.504;2023-06-26T15:47:00;15.23;;;2.78;;
52438;SDS011;38359;53.150;6.504;2023-06-26T15:57:26;11.05;;;2.20;;
52438;SDS011;38359;53.150;6.504;2023-06-26T16:07:52;7.25;;;2.05;;
52438;SDS011;38359;53.150;6.504;2023-06-26T16:18:17;13.02;;;1.92;;
52438;SDS011;38359;53.150;6.504;2023-06-26T16:28:44;10.48;;;1.80;;
52438;SDS011;38359;53.150;6.504;2023-06-26T16:39:13;8.88;;;1.70;;
52438;SDS011;38359;53.150;6.504;2023-06-26T16:49:44;13.38;;;2.22;;
52438;SDS011;38359;53.150;6.504;2023-06-26T17:00:10;5.35;;;1.23;;
52438;SDS011;38359;53.150;6.504;2023-06-26T17:10:37;5.10;;;1.23;;
52438;SDS011;38359;53.150;6.504;2023-06-26T17:21:02;7.25;;;1.75;;
52438;SDS011;38359;53.150;6.504;2023-06-26T17:31:28;10.32;;;2.03;;
52438;SDS011;38359;53.150;6.504;2023-06-26T17:41:56;10.15;;;2.13;;
52438;SDS011;38359;53.150;6.504;2023-06-26T17:52:22;13.25;;;2.45;;
52438;SDS011;38359;53.150;6.504;2023-06-26T18:02:48;8.55;;;1.88;;
52438;SDS011;38359;53.150;6.504;2023-06-26T18:13:14;12.38;;;2.05;;
52438;SDS011;38359;53.150;6.504;2023-06-26T18:23:40;8.25;;;1.85;;
52438;SDS011;38359;53.150;6.504;2023-06-26T18:34:06;11.98;;;1.90;;
52438;SDS011;38359;53.150;6.504;2023-06-26T18:44:32;15.48;;;2.13;;
52438;SDS011;38359;53.150;6.504;2023-06-26T18:54:58;8.30;;;1.95;;
52438;SDS011;38359;53.150;6.504;2023-06-26T19:05:24;14.60;;;2.30;;
52438;SDS011;38359;53.150;6.504;2023-06-26T19:15:50;11.20;;;2.35;;
52438;SDS011;38359;53.150;6.504;2023-06-26T19:26:16;9.07;;;1.70;;
52438;SDS011;38359;53.150;6.504;2023-06-26T19:36:41;10.48;;;1.90;;
52438;SDS011;38359;53.150;6.504;2023-06-26T19:47:07;12.30;;;2.00;;
52438;SDS011;38359;53.150;6.504;2023-06-26T19:57:33;9.48;;;2.22;;
52438;SDS011;38359;53.150;6.504;2023-06-26T20:07:59;10.05;;;1.85;;
52438;SDS011;38359;53.150;6.504;2023-06-26T20:18:25;8.52;;;1.90;;
52438;SDS011;38359;53.150;6.504;2023-06-26T20:28:50;9.57;;;1.88;;
52438;SDS011;38359;53.150;6.504;2023-06-26T20:39:16;13.45;;;2.60;;
52438;SDS011;38359;53.150;6.504;2023-06-26T20:49:42;8.00;;;1.88;;
52438;SDS011;38359;53.150;6.504;2023-06-26T21:00:08;11.30;;;2.20;;
52438;SDS011;38359;53.150;6.504;2023-06-26T21:10:35;14.68;;;1.95;;
52438;SDS011;38359;53.150;6.504;2023-06-26T21:21:01;8.95;;;1.75;;
52438;SDS011;38359;53.150;6.504;2023-06-26T21:31:27;15.05;;;1.80;;
52438;SDS011;38359;53.150;6.504;2023-06-26T21:41:52;5.35;;;1.63;;
52438;SDS011;38359;53.150;6.504;2023-06-26T21:52:18;6.68;;;1.75;;
52438;SDS011;38359;53.150;6.504;2023-06-26T22:02:44;11.85;;;2.00;;
52438;SDS011;38359;53.150;6.504;2023-06-26T22:13:10;13.40;;;2.53;;
52438;SDS011;38359;53.150;6.504;2023-06-26T22:23:36;8.27;;;1.70;;
52438;SDS011;38359;53.150;6.504;2023-06-26T22:34:01;8.32;;;1.90;;
52438;SDS011;38359;53.150;6.504;2023-06-26T22:44:27;10.52;;;3.03;;
52438;SDS011;38359;53.150;6.504;2023-06-26T22:54:53;9.75;;;2.50;;
52438;SDS011;38359;53.150;6.504;2023-06-26T23:05:19;13.13;;;2.03;;
52438;SDS011;38359;53.150;6.504;2023-06-26T23:15:45;13.77;;;2.40;;
52438;SDS011;38359;53.150;6.504;2023-06-26T23:26:10;11.55;;;2.58;;
52438;SDS011;38359;53.150;6.504;2023-06-26T23:36:36;13.20;;;2.60;;
52438;SDS011;38359;53.150;6.504;2023-06-26T23:47:03;8.93;;;2.55;;
52438;SDS011;38359;53.150;6.504;2023-06-26T23:57:29;7.03;;;3.00;;
